Time;durP1;ratioP1;P1;durP2;ratioP2;P2;SDS_P1;SDS_P2;PMS_P1;PMS_P2;Temp;Humidity;BMP_temperature;BMP_pressure;BME280_temperature;BME280_humidity;BME280_pressure;Samples;Min_cycle;Max_cycle;Signal;HPM_P1;HPM_P2
2021/05/17 00:01:38;;;;;;;2.35;1.70;;;;;;;15.23;60.94;98890.41;4385095;32;33465;-86
2021/05/17 00:04:07;;;;;;;3.33;1.98;;;;;;;15.34;58.87;98879.81;4389511;32;33282;-86
2021/05/17 00:06:35;;;;;;;3.15;2.25;;;;;;;15.33;57.44;98870.12;4398963;32;34316;-86
2021/05/17 00:09:03;;;;;;;2.40;2.05;;;;;;;15.31;57.52;98866.75;4389599;32;33634;-86
2021/05/17 00:11:31;;;;;;;5.25;1.70;;;;;;;15.48;57.66;98868.94;4377463;32;31709;-86
2021/05/17 00:13:59;;;;;;;2.25;1.75;;;;;;;15.69;56.25;98860.25;4395831;32;34196;-86
2021/05/17 00:16:27;;;;;;;2.87;1.90;;;;;;;15.35;56.49;98853.09;4394109;32;34011;-86
2021/05/17 00:18:55;;;;;;;2.62;1.60;;;;;;;15.63;56.63;98850.91;4392269;32;34132;-86
2021/05/17 00:21:23;;;;;;;3.97;1.83;;;;;;;15.53;56.70;98850.78;4382328;32;32938;-86
2021/05/17 00:23:51;;;;;;;2.10;1.77;;;;;;;15.61;56.36;98837.72;4383151;32;34009;-86
2021/05/17 00:26:20;;;;;;;4.15;1.58;;;;;;;15.87;56.26;98827.69;4380586;32;33615;-86
2021/05/17 00:28:48;;;;;;;2.72;2.03;;;;;;;15.96;55.24;98826.09;4370117;32;33984;-86
2021/05/17 00:31:16;;;;;;;4.20;1.80;;;;;;;16.24;54.80;98823.84;4396357;32;33530;-86
2021/05/17 00:33:44;;;;;;;3.15;2.17;;;;;;;16.22;54.54;98825.75;4395291;32;33957;-85
2021/05/17 00:36:12;;;;;;;2.10;1.80;;;;;;;16.23;54.39;98832.78;4374877;32;35706;-85
2021/05/17 00:38:40;;;;;;;2.97;2.53;;;;;;;16.22;54.72;98831.09;4382167;32;33664;-83
2021/05/17 00:41:09;;;;;;;2.00;1.80;;;;;;;16.14;54.69;98834.37;4390921;32;33181;-84
2021/05/17 00:43:38;;;;;;;5.25;2.50;;;;;;;16.11;54.88;98831.97;4384160;32;33695;-83
2021/05/17 00:46:08;;;;;;;3.30;2.10;;;;;;;16.34;54.51;98828.25;4391390;32;33716;-84
2021/05/17 00:48:38;;;;;;;3.62;2.40;;;;;;;16.32;54.25;98832.00;4391559;32;34601;-84
2021/05/17 00:51:08;;;;;;;6.75;2.50;;;;;;;16.34;54.50;98819.44;4389409;32;33539;-83
2021/05/17 00:53:37;;;;;;;4.32;2.17;;;;;;;16.24;54.54;98821.16;4389322;32;34734;-83
2021/05/17 00:56:06;;;;;;;3.45;1.90;;;;;;;16.43;54.20;98818.66;4392715;32;33333;-83
2021/05/17 00:58:35;;;;;;;2.40;1.52;;;;;;;16.27;54.74;98819.06;4402103;32;31751;-83
2021/05/17 01:01:05;;;;;;;4.95;1.73;;;;;;;15.94;55.50;98821.84;4389302;32;32562;-83
2021/05/17 01:03:33;;;;;;;3.05;1.77;;;;;;;16.41;54.17;98814.44;4389377;32;34555;-83
2021/05/17 01:06:02;;;;;;;1.77;1.50;;;;;;;16.51;54.25;98813.53;4390651;32;34826;-83
2021/05/17 01:08:40;;;;;;;2.45;1.77;;;;;;;16.46;54.19;98813.06;4389079;32;34763;-85
2021/05/17 01:11:08;;;;;;;3.60;1.70;;;;;;;16.61;53.54;98811.78;4384238;32;33843;-84
2021/05/17 01:13:39;;;;;;;2.03;1.52;;;;;;;16.45;54.33;98805.22;4385611;32;34252;-86
2021/05/17 01:16:07;;;;;;;2.62;1.75;;;;;;;16.61;53.30;98801.09;4394066;32;33509;-84
2021/05/17 01:18:36;;;;;;;1.60;1.50;;;;;;;16.39;54.45;98803.91;4391062;32;33468;-84
2021/05/17 01:21:04;;;;;;;2.92;1.62;;;;;;;16.79;53.21;98797.91;4399494;32;34106;-84
2021/05/17 01:23:44;;;;;;;5.05;1.92;;;;;;;16.79;53.20;98784.56;4389339;32;34266;-86
2021/05/17 01:26:14;;;;;;;2.33;1.67;;;;;;;16.85;53.12;98792.03;4401609;32;33547;-84
2021/05/17 01:28:43;;;;;;;1.83;1.37;;;;;;;16.82;53.25;98781.66;4389360;32;33649;-83
2021/05/17 01:31:11;;;;;;;2.65;1.50;;;;;;;16.81;53.36;98782.63;4389552;32;33237;-83
2021/05/17 01:33:42;;;;;;;1.73;1.50;;;;;;;16.55;54.41;98785.66;4389547;32;35386;-83
2021/05/17 01:36:11;;;;;;;2.28;1.80;;;;;;;16.86;53.66;98786.59;4389234;32;34479;-83
2021/05/17 01:38:43;;;;;;;2.22;1.67;;;;;;;17.15;53.46;98789.41;4377212;32;35541;-83
2021/05/17 01:41:13;;;;;;;3.08;1.40;;;;;;;17.14;53.71;98790.41;4389317;32;33290;-85
2021/05/17 01:43:46;;;;;;;1.92;1.52;;;;;;;16.90;55.32;98795.16;4401504;32;34551;-85
2021/05/17 01:46:24;;;;;;;2.50;2.00;;;;;;;16.85;55.40;98797.37;4388941;32;33969;-85
2021/05/17 01:48:58;;;;;;;2.25;1.90;;;;;;;16.58;55.95;98790.72;4387500;32;33884;-84
2021/05/17 01:51:29;;;;;;;3.58;2.15;;;;;;;16.98;54.87;98790.00;4389802;32;34107;-84
2021/05/17 01:53:58;;;;;;;2.50;2.20;;;;;;;17.34;53.87;98787.81;4376963;32;34399;-85
2021/05/17 01:56:26;;;;;;;3.70;2.10;;;;;;;16.97;55.26;98791.00;4377522;32;33437;-84
2021/05/17 01:58:55;;;;;;;2.78;1.87;;;;;;;17.35;53.85;98784.16;4390878;32;34886;-84
2021/05/17 02:01:25;;;;;;;3.25;2.10;;;;;;;16.96;55.30;98780.47;4398000;32;33542;-84
2021/05/17 02:03:53;;;;;;;3.95;2.35;;;;;;;17.24;54.07;98781.59;4376510;32;34146;-84
2021/05/17 02:06:21;;;;;;;2.78;2.30;;;;;;;17.01;54.85;98778.25;4388511;32;35663;-84
2021/05/17 02:08:51;;;;;;;7.12;2.62;;;;;;;16.61;56.25;98773.63;4401337;32;33695;-84
2021/05/17 02:11:22;;;;;;;4.18;2.35;;;;;;;16.77;55.27;98767.88;4388723;32;33954;-84
2021/05/17 02:13:52;;;;;;;3.55;2.58;;;;;;;16.67;55.36;98767.78;4388908;32;33729;-85
2021/05/17 02:16:20;;;;;;;4.15;2.65;;;;;;;16.48;55.75;98773.84;4375952;32;34912;-84
2021/05/17 02:18:48;;;;;;;5.68;2.90;;;;;;;16.50;55.73;98771.88;4388166;32;33649;-84
2021/05/17 02:21:18;;;;;;;6.25;3.03;;;;;;;16.68;55.12;98766.81;4388289;32;34165;-83
2021/05/17 02:23:47;;;;;;;4.62;2.58;;;;;;;16.65;55.20;98769.72;4388249;32;33363;-83
2021/05/17 02:26:15;;;;;;;6.37;2.75;;;;;;;16.51;55.77;98776.22;4388326;32;34274;-83
2021/05/17 02:28:43;;;;;;;3.10;2.37;;;;;;;16.51;55.83;98772.72;4391433;32;33953;-83
2021/05/17 02:31:14;;;;;;;2.70;2.20;;;;;;;16.34;56.41;98756.34;4401667;32;33398;-83
2021/05/17 02:33:42;;;;;;;2.90;2.55;;;;;;;16.37;56.54;98760.56;4389010;32;34065;-83
2021/05/17 02:36:10;;;;;;;2.67;2.30;;;;;;;16.44;56.28;98759.06;4389161;32;34552;-83
2021/05/17 02:38:38;;;;;;;4.35;2.10;;;;;;;16.53;55.99;98754.78;4388945;32;33591;-84
2021/05/17 02:41:09;;;;;;;3.45;2.62;;;;;;;16.28;56.73;98751.50;4388916;32;33278;-84
2021/05/17 02:43:37;;;;;;;3.50;2.95;;;;;;;16.38;56.32;98756.94;4389083;32;34470;-85
2021/05/17 02:46:06;;;;;;;5.30;3.12;;;;;;;16.43;56.13;98746.72;4388842;32;34590;-85
2021/05/17 02:48:42;;;;;;;4.45;3.25;;;;;;;16.42;56.36;98746.84;4388884;32;33596;-87
2021/05/17 02:51:10;;;;;;;4.87;2.95;;;;;;;16.12;57.34;98745.78;4389566;32;34234;-86
2021/05/17 02:53:38;;;;;;;3.75;2.60;;;;;;;16.10;57.46;98743.25;4388306;32;35238;-86
2021/05/17 02:56:12;;;;;;;3.45;2.53;;;;;;;15.86;58.51;98739.97;4388920;32;34345;-86
2021/05/17 02:58:44;;;;;;;3.87;2.58;;;;;;;16.18;57.61;98739.09;4389118;32;34611;-83
2021/05/17 03:01:15;;;;;;;5.00;2.37;;;;;;;16.02;57.94;98740.38;4389169;32;33853;-84
2021/05/17 03:03:48;;;;;;;7.65;2.75;;;;;;;16.16;57.40;98741.06;4376458;32;32372;-83
2021/05/17 03:06:29;;;;;;;2.67;2.03;;;;;;;16.28;57.13;98742.66;4400945;32;35028;-84
2021/05/17 03:09:08;;;;;;;7.47;2.72;;;;;;;16.45;56.61;98750.09;4388334;32;35654;-83
2021/05/17 03:11:40;;;;;;;2.40;2.20;;;;;;;16.53;56.16;98742.31;4388779;32;33035;-83
2021/05/17 03:14:14;;;;;;;2.28;2.05;;;;;;;16.19;57.82;98749.63;4355891;32;34157;-83
2021/05/17 03:16:49;;;;;;;3.35;2.37;;;;;;;16.12;58.13;98756.44;4376003;32;32345;-83
2021/05/17 03:19:18;;;;;;;3.42;2.72;;;;;;;16.19;58.15;98756.75;4388411;32;34471;-83
2021/05/17 03:21:46;;;;;;;3.08;2.05;;;;;;;16.09;58.99;98751.34;4388059;32;34153;-83
2021/05/17 03:24:15;;;;;;;2.87;2.35;;;;;;;16.19;59.10;98749.63;4388839;32;33465;-83
2021/05/17 03:26:44;;;;;;;6.50;2.40;;;;;;;16.23;58.82;98751.03;4388334;32;33653;-83
2021/05/17 03:29:12;;;;;;;3.40;2.50;;;;;;;16.34;59.25;98744.84;4382439;32;35096;-83
2021/05/17 03:31:40;;;;;;;3.97;3.00;;;;;;;16.53;58.74;98744.97;4381586;32;34304;-83
2021/05/17 03:34:08;;;;;;;4.45;2.17;;;;;;;16.58;58.95;98745.44;4391910;32;34074;-83
2021/05/17 03:36:38;;;;;;;4.45;2.40;;;;;;;16.81;58.14;98742.66;4378762;32;35261;-84
2021/05/17 03:39:06;;;;;;;3.45;2.45;;;;;;;16.76;58.37;98739.50;4378828;32;34407;-83
2021/05/17 03:41:34;;;;;;;2.47;2.00;;;;;;;16.85;58.61;98741.38;4380812;32;34100;-83
2021/05/17 03:44:02;;;;;;;2.58;2.37;;;;;;;16.79;59.29;98740.09;4395682;32;33805;-83
2021/05/17 03:46:29;;;;;;;3.55;2.70;;;;;;;16.71;59.72;98741.69;4388269;32;34718;-83
2021/05/17 03:48:59;;;;;;;4.12;2.00;;;;;;;16.15;60.78;98732.22;4387922;32;33398;-83
2021/05/17 03:51:27;;;;;;;3.50;2.75;;;;;;;16.17;60.65;98729.41;4375966;32;33120;-83
2021/05/17 03:53:54;;;;;;;3.92;3.28;;;;;;;16.23;60.24;98723.56;4375193;32;34020;-84
2021/05/17 03:56:22;;;;;;;5.22;2.50;;;;;;;16.06;60.76;98720.50;4387735;32;35524;-83
2021/05/17 03:58:50;;;;;;;3.33;2.67;;;;;;;15.84;62.48;98721.44;4387415;32;33356;-83
2021/05/17 04:01:18;;;;;;;4.45;2.35;;;;;;;15.92;62.21;98718.16;4387342;32;33774;-82
2021/05/17 04:03:47;;;;;;;5.28;2.87;;;;;;;15.83;62.52;98714.44;4387402;32;33618;-83
2021/05/17 04:06:59;;;;;;;3.47;2.47;;;;;;;15.81;62.36;98712.87;4386918;32;33468;-83
2021/05/17 04:14:38;;;;;;;3.50;2.92;;;;;;;16.15;61.35;98713.59;4385581;32;35189;-83
2021/05/17 04:17:09;;;;;;;4.00;2.97;;;;;;;16.21;61.15;98707.72;4386131;32;33436;-83
2021/05/17 04:19:39;;;;;;;8.13;3.47;;;;;;;16.38;60.27;98703.66;4386454;32;33432;-84
2021/05/17 04:22:07;;;;;;;4.68;2.85;;;;;;;16.44;59.30;98705.78;4386691;32;33118;-84
2021/05/17 04:24:35;;;;;;;6.43;3.20;;;;;;;16.24;59.91;98710.16;4384269;32;33372;-84
2021/05/17 04:27:03;;;;;;;5.60;3.35;;;;;;;15.97;60.83;98717.78;4396992;32;33732;-84
2021/05/17 04:29:32;;;;;;;4.72;3.03;;;;;;;15.92;60.45;98728.81;4387024;32;34612;-84
2021/05/17 04:32:02;;;;;;;3.60;2.90;;;;;;;15.69;61.74;98732.50;4364540;32;33714;-85
2021/05/17 04:34:30;;;;;;;5.15;2.65;;;;;;;15.95;60.50;98733.00;4388766;32;34203;-85
2021/05/17 04:36:58;;;;;;;3.50;3.20;;;;;;;16.12;60.26;98720.00;4388814;32;34353;-85
2021/05/17 04:39:26;;;;;;;4.78;2.70;;;;;;;16.18;61.35;98729.28;4392140;32;34060;-84
2021/05/17 04:41:54;;;;;;;8.90;2.83;;;;;;;16.33;61.36;98721.81;4389669;32;32567;-82
2021/05/17 04:44:32;;;;;;;2.90;2.42;;;;;;;16.31;61.60;98723.78;4393689;32;33263;-83
2021/05/17 04:47:00;;;;;;;4.90;2.85;;;;;;;16.24;62.82;98728.78;4389445;32;33806;-82
2021/05/17 04:49:29;;;;;;;4.00;3.20;;;;;;;16.14;64.13;98733.16;4398245;32;34290;-83
2021/05/17 04:51:57;;;;;;;3.20;2.65;;;;;;;16.15;64.26;98726.06;4389599;32;32994;-83
2021/05/17 04:54:26;;;;;;;3.72;2.28;;;;;;;16.32;63.44;98730.78;4389486;32;35580;-83
2021/05/17 04:56:54;;;;;;;4.68;2.80;;;;;;;16.27;62.98;98735.66;4388864;32;34098;-83
2021/05/17 04:59:22;;;;;;;4.55;2.65;;;;;;;16.61;62.74;98729.16;4379253;32;34648;-83
2021/05/17 05:01:49;;;;;;;3.03;2.67;;;;;;;16.72;62.72;98728.28;4388937;32;33020;-84
2021/05/17 05:04:17;;;;;;;5.18;2.83;;;;;;;16.80;62.25;98719.63;4388993;32;34487;-84
2021/05/17 05:06:45;;;;;;;5.25;2.67;;;;;;;16.59;62.76;98725.78;4373168;32;35667;-84
2021/05/17 05:09:13;;;;;;;4.53;3.03;;;;;;;16.28;64.06;98730.19;4388982;32;34438;-83
2021/05/17 05:11:41;;;;;;;8.38;3.17;;;;;;;16.20;64.02;98731.84;4376689;32;34271;-83
2021/05/17 05:14:09;;;;;;;5.18;3.15;;;;;;;16.13;65.08;98732.31;4388086;32;33659;-84
2021/05/17 05:16:37;;;;;;;6.68;3.70;;;;;;;16.25;65.19;98730.47;4389783;32;33576;-83
2021/05/17 05:19:05;;;;;;;3.87;3.03;;;;;;;16.15;65.82;98734.03;4388102;32;33993;-83
2021/05/17 05:21:34;;;;;;;5.82;4.00;;;;;;;16.28;65.68;98734.69;4379790;32;33224;-83
2021/05/17 05:24:02;;;;;;;5.10;4.00;;;;;;;16.30;65.88;98732.75;4388788;32;34225;-83
2021/05/17 05:31:50;;;;;;;6.70;4.18;;;;;;;16.59;63.68;98717.78;4373972;32;33096;-86
2021/05/17 05:34:18;;;;;;;7.60;3.80;;;;;;;16.61;64.03;98710.50;4384600;32;34578;-86
2021/05/17 05:36:46;;;;;;;8.38;3.90;;;;;;;16.37;64.86;98720.59;4388390;32;33536;-86
2021/05/17 05:39:14;;;;;;;5.28;4.12;;;;;;;16.11;65.90;98718.31;4375624;32;34372;-86
2021/05/17 05:41:43;;;;;;;4.20;3.80;;;;;;;16.07;66.56;98716.03;4388799;32;33505;-86
2021/05/17 05:44:11;;;;;;;6.30;4.03;;;;;;;16.03;66.62;98715.44;4388589;32;33680;-86
2021/05/17 05:46:38;;;;;;;6.72;3.90;;;;;;;16.27;65.94;98717.84;4388263;32;35110;-86
2021/05/17 05:49:06;;;;;;;5.07;4.57;;;;;;;16.02;66.68;98728.87;4389590;32;33791;-86
2021/05/17 05:51:34;;;;;;;7.03;3.85;;;;;;;16.04;66.97;98726.94;4388287;32;33814;-86
2021/05/17 05:54:03;;;;;;;9.02;4.28;;;;;;;16.41;65.27;98714.03;4388516;32;34211;-86
2021/05/17 05:56:30;;;;;;;6.95;4.55;;;;;;;16.26;65.52;98731.31;4381404;32;34219;-85
2021/05/17 05:58:59;;;;;;;4.68;3.90;;;;;;;15.98;67.45;98735.44;4388248;32;35086;-85
2021/05/17 06:01:27;;;;;;;7.87;4.03;;;;;;;16.28;65.91;98724.88;4388246;32;33106;-85
2021/05/17 06:03:55;;;;;;;5.37;4.10;;;;;;;15.81;68.34;98739.50;4399381;32;32885;-85
2021/05/17 06:06:23;;;;;;;5.87;4.47;;;;;;;15.87;67.92;98741.66;4388275;32;34211;-85
2021/05/17 06:08:51;;;;;;;11.12;4.85;;;;;;;15.96;67.48;98751.53;4386033;32;34593;-85
2021/05/17 06:11:19;;;;;;;7.62;5.32;;;;;;;16.15;67.20;98740.22;4389546;32;33796;-87
2021/05/17 06:13:49;;;;;;;7.72;4.37;;;;;;;16.04;68.04;98743.75;4387018;32;33344;-85
2021/05/17 06:16:17;;;;;;;6.78;4.97;;;;;;;15.83;69.08;98734.88;4387562;32;36018;-85
2021/05/17 06:18:45;;;;;;;7.28;5.03;;;;;;;15.74;69.48;98740.97;4376145;32;33710;-85
2021/05/17 06:21:13;;;;;;;6.05;5.00;;;;;;;15.81;69.46;98736.84;4400541;32;33958;-85
2021/05/17 06:23:43;;;;;;;8.55;5.20;;;;;;;15.43;70.96;98738.09;4387912;32;33971;-85
2021/05/17 06:26:11;;;;;;;5.60;4.50;;;;;;;15.57;70.19;98723.66;4400392;32;33843;-85
2021/05/17 06:28:39;;;;;;;8.63;5.47;;;;;;;15.64;69.87;98719.56;4400249;32;34214;-85
2021/05/17 06:31:08;;;;;;;5.80;4.80;;;;;;;15.37;71.30;98722.63;4386387;32;33571;-85
2021/05/17 06:33:37;;;;;;;10.35;5.40;;;;;;;15.58;70.84;98720.06;4387103;32;33607;-85
2021/05/17 06:36:09;;;;;;;11.25;5.95;;;;;;;15.62;70.77;98711.69;4373621;32;34618;-85
2021/05/17 06:38:39;;;;;;;;;;;;;;;15.61;70.90;98717.97;4400580;32;33284;-85
2021/05/17 06:41:08;;;;;;;6.18;4.95;;;;;;;15.50;71.95;98712.69;4387573;32;32918;-85
2021/05/17 06:43:36;;;;;;;11.45;5.87;;;;;;;15.76;70.91;98712.37;4375377;32;33788;-85
2021/05/17 06:46:08;;;;;;;11.18;5.87;;;;;;;15.79;71.01;98717.47;4393644;32;34420;-86
2021/05/17 06:48:43;;;;;;;6.93;5.37;;;;;;;15.81;71.06;98712.87;4399394;32;33500;-85
2021/05/17 06:51:16;;;;;;;10.13;6.55;;;;;;;15.86;70.77;98710.69;4395427;32;34125;-86
2021/05/17 06:53:45;;;;;;;9.40;6.75;;;;;;;15.59;72.56;98705.78;4400260;32;33964;-85
2021/05/17 06:57:05;;;;;;;7.75;6.87;;;;;;;15.55;73.06;98707.84;4383048;32;34854;-85
2021/05/17 06:59:11;;;;;;;10.05;6.32;;;;;;;15.51;73.29;98708.19;4378746;32;34384;-84
2021/05/17 07:01:40;;;;;;;8.32;6.78;;;;;;;15.62;72.65;98706.37;4387410;32;32867;-84
2021/05/17 07:04:09;;;;;;;9.52;6.00;;;;;;;15.78;72.22;98705.16;4387605;32;33259;-85
2021/05/17 07:06:38;;;;;;;9.48;6.25;;;;;;;16.17;70.75;98702.78;4385581;32;31973;-85
2021/05/17 07:12:02;;;;;;;8.73;6.35;;;;;;;15.74;72.38;98701.03;4386611;32;34086;-85
2021/05/17 07:14:30;;;;;;;9.95;6.75;;;;;;;15.78;72.54;98702.47;4378124;32;33408;-85
2021/05/17 07:16:57;;;;;;;7.87;5.50;;;;;;;16.00;71.69;98705.06;4394697;32;33868;-84
2021/05/17 07:19:26;;;;;;;10.00;6.80;;;;;;;15.91;71.87;98700.50;4375078;32;34521;-85
2021/05/17 07:24:41;;;;;;;7.22;6.40;;;;;;;16.00;71.79;98701.53;4385938;32;34274;-85
2021/05/17 07:27:09;;;;;;;8.85;6.45;;;;;;;15.89;72.48;98702.44;4402151;32;33306;-85
2021/05/17 07:29:38;;;;;;;8.30;5.50;;;;;;;15.98;72.12;98700.81;4374976;32;33571;-85
2021/05/17 07:32:09;;;;;;;9.52;5.87;;;;;;;15.84;72.74;98705.47;4387799;32;34827;-85
2021/05/17 07:34:37;;;;;;;6.10;5.50;;;;;;;15.66;73.55;98711.47;4395022;32;33547;-85
2021/05/17 07:37:06;;;;;;;7.50;5.57;;;;;;;15.53;74.01;98695.63;4387622;32;32751;-85
2021/05/17 07:39:34;;;;;;;6.68;5.68;;;;;;;15.72;73.31;98700.34;4387745;32;34503;-85
2021/05/17 07:42:03;;;;;;;6.25;5.18;;;;;;;15.80;73.36;98692.53;4387590;32;34718;-84
2021/05/17 07:44:31;;;;;;;8.95;6.00;;;;;;;15.60;74.22;98691.50;4387837;32;33611;-84
2021/05/17 07:47:00;;;;;;;6.20;5.05;;;;;;;15.79;73.84;98693.50;4386809;32;34667;-84
2021/05/17 07:52:04;;;;;;;5.70;3.87;;;;;;;15.88;73.74;98684.78;4388038;32;34104;-84
2021/05/17 07:54:34;;;;;;;5.35;4.32;;;;;;;15.85;73.69;98677.03;4387014;32;33398;-85
2021/05/17 07:57:04;;;;;;;6.32;3.80;;;;;;;15.95;72.89;98677.97;4387690;32;34385;-85
2021/05/17 07:59:34;;;;;;;4.27;3.70;;;;;;;15.78;73.81;98679.38;4401912;32;33478;-86
2021/05/17 08:02:03;;;;;;;4.00;3.60;;;;;;;15.85;73.45;98669.03;4400503;32;35177;-85
2021/05/17 08:04:32;;;;;;;6.70;4.12;;;;;;;16.14;72.61;98663.94;4376277;32;35914;-86
2021/05/17 08:06:59;;;;;;;5.68;3.42;;;;;;;16.22;72.26;98665.97;4380129;32;35634;-85
2021/05/17 08:09:28;;;;;;;6.97;4.15;;;;;;;16.07;73.10;98660.97;4375477;32;34088;-86
2021/05/17 08:11:56;;;;;;;4.78;3.78;;;;;;;15.98;73.64;98666.22;4388913;32;33233;-86
2021/05/17 08:14:24;;;;;;;4.65;4.20;;;;;;;16.06;73.89;98659.28;4384605;32;34005;-86
2021/05/17 08:16:51;;;;;;;7.60;5.80;;;;;;;16.04;73.83;98658.53;4389247;32;33144;-86
2021/05/17 08:19:19;;;;;;;6.55;4.35;;;;;;;15.77;76.06;98653.72;4390333;32;34530;-86
2021/05/17 08:21:47;;;;;;;5.22;4.68;;;;;;;15.68;75.97;98658.97;4389362;32;32932;-86
2021/05/17 08:24:15;;;;;;;6.45;4.45;;;;;;;15.75;76.02;98652.16;4401728;32;35057;-86
2021/05/17 08:26:43;;;;;;;5.47;4.55;;;;;;;15.72;75.80;98652.44;4377356;32;34310;-86
2021/05/17 08:29:11;;;;;;;10.32;5.30;;;;;;;15.80;76.37;98652.63;4388849;32;33306;-86
2021/05/17 08:31:39;;;;;;;4.12;3.80;;;;;;;16.32;74.37;98640.22;4388701;32;33297;-86
2021/05/17 08:34:08;;;;;;;9.23;5.07;;;;;;;15.95;74.38;98640.72;4389075;32;33749;-86
2021/05/17 08:36:36;;;;;;;8.85;6.15;;;;;;;16.26;74.18;98632.75;4384670;32;35666;-86
2021/05/17 08:39:06;;;;;;;8.95;6.72;;;;;;;15.97;75.72;98629.91;4400581;32;33755;-86
2021/05/17 08:41:35;;;;;;;8.80;6.37;;;;;;;16.31;75.51;98628.72;4375729;32;33489;-86
2021/05/17 08:44:07;;;;;;;7.10;6.40;;;;;;;16.41;74.21;98628.78;4387356;32;33060;-87
2021/05/17 08:46:35;;;;;;;9.90;7.32;;;;;;;16.57;73.12;98628.31;4388835;32;33749;-86
2021/05/17 08:49:03;;;;;;;10.32;8.18;;;;;;;16.41;74.74;98627.94;4388229;32;33026;-87
2021/05/17 08:51:32;;;;;;;12.07;7.32;;;;;;;16.40;74.49;98624.44;4389209;32;34637;-87
2021/05/17 08:54:03;;;;;;;11.52;7.43;;;;;;;16.07;75.57;98622.84;4372708;32;108896;-87
2021/05/17 08:56:31;;;;;;;11.12;6.60;;;;;;;16.37;73.99;98624.69;4401232;32;34422;-87
2021/05/17 08:59:04;;;;;;;8.23;6.18;;;;;;;16.65;73.35;98615.97;4388417;32;33111;-87
2021/05/17 09:01:33;;;;;;;9.13;6.47;;;;;;;16.64;74.07;98614.28;4388952;32;32982;-86
2021/05/17 09:04:03;;;;;;;11.50;6.50;;;;;;;16.52;74.30;98615.38;4395424;32;34590;-87
2021/05/17 09:06:44;;;;;;;12.48;6.72;;;;;;;16.43;74.35;98613.53;4382486;32;34288;-86
2021/05/17 09:09:39;;;;;;;9.43;6.10;;;;;;;16.55;73.89;98615.09;4398216;32;35205;-87
2021/05/17 09:12:10;;;;;;;8.18;5.72;;;;;;;16.67;72.79;98601.69;4385765;32;33086;-87
2021/05/17 09:14:39;;;;;;;7.50;5.90;;;;;;;16.33;74.09;98610.81;4400114;32;35090;-87
2021/05/17 09:17:09;;;;;;;10.45;6.97;;;;;;;15.82;76.17;98610.75;4369735;32;35990;-87
2021/05/17 09:19:41;;;;;;;5.00;4.50;;;;;;;15.83;76.44;98612.44;4401056;32;32868;-87
2021/05/17 09:22:19;;;;;;;6.90;4.60;;;;;;;16.24;73.49;98606.28;4387683;32;34013;-86
2021/05/17 09:24:57;;;;;;;8.40;4.70;;;;;;;16.35;73.36;98600.00;4388202;32;36105;-88
2021/05/17 09:27:25;;;;;;;7.00;4.85;;;;;;;16.14;74.55;98605.34;4382637;32;32866;-87
2021/05/17 09:30:02;;;;;;;6.25;5.53;;;;;;;16.16;75.08;98597.25;4381057;32;35509;-87
2021/05/17 09:32:31;;;;;;;6.90;4.93;;;;;;;16.47;74.23;98595.41;4400734;32;33758;-86
2021/05/17 09:35:17;;;;;;;7.10;3.97;;;;;;;16.25;74.08;98599.97;4397163;32;35747;-87
2021/05/17 09:37:51;;;;;;;4.50;4.10;;;;;;;16.39;73.53;98583.63;4386917;32;33484;-87
2021/05/17 09:40:22;;;;;;;9.32;4.18;;;;;;;15.82;75.75;98595.62;4388510;32;35136;-87
2021/05/17 09:43:03;;;;;;;7.18;3.90;;;;;;;16.18;74.84;98595.28;4383595;32;33299;-87
2021/05/17 09:45:48;;;;;;;4.80;4.30;;;;;;;16.33;73.57;98583.28;4388641;32;35279;-87
2021/05/17 09:48:17;;;;;;;6.15;4.25;;;;;;;16.21;74.11;98587.88;4389366;32;34539;-86
2021/05/17 09:51:00;;;;;;;6.47;5.53;;;;;;;16.04;75.12;98589.31;4399243;32;33820;-86
2021/05/17 09:53:30;;;;;;;6.18;5.57;;;;;;;15.85;75.91;98579.38;4386785;32;32732;-87
2021/05/17 09:55:59;;;;;;;5.95;5.12;;;;;;;16.21;75.04;98571.06;4387577;32;33610;-86
2021/05/17 09:58:33;;;;;;;8.60;5.57;;;;;;;16.36;74.05;98562.56;4387619;32;33460;-86
2021/05/17 10:01:08;;;;;;;7.10;6.12;;;;;;;16.20;75.18;98561.37;4388129;32;34853;-86
2021/05/17 10:03:45;;;;;;;12.80;7.32;;;;;;;16.10;74.73;98564.84;4387950;32;34314;-86
2021/05/17 10:06:17;;;;;;;8.38;6.12;;;;;;;16.03;75.17;98561.00;4387960;32;33364;-86
2021/05/17 10:08:46;;;;;;;5.87;5.32;;;;;;;16.13;74.99;98558.41;4400206;32;34433;-86
2021/05/17 10:11:16;;;;;;;6.10;5.50;;;;;;;16.27;74.34;98544.72;4387217;32;33200;-87
2021/05/17 10:13:44;;;;;;;6.37;5.72;;;;;;;16.02;75.49;98550.50;4400473;32;33706;-87
2021/05/17 10:16:14;;;;;;;6.03;5.53;;;;;;;16.21;74.78;98541.75;4400074;32;33319;-87
2021/05/17 10:18:43;;;;;;;6.75;5.47;;;;;;;15.80;76.27;98547.00;4375435;32;32311;-87
2021/05/17 10:21:13;;;;;;;10.63;5.97;;;;;;;15.74;76.47;98544.03;4386320;32;33777;-87
2021/05/17 10:23:42;;;;;;;7.60;5.60;;;;;;;16.01;75.47;98544.34;4387903;32;33285;-86
2021/05/17 10:26:17;;;;;;;7.20;5.80;;;;;;;15.56;77.94;98546.38;4400258;32;35049;-87
2021/05/17 10:28:52;;;;;;;6.95;6.25;;;;;;;16.10;76.09;98545.37;4387661;32;34433;-87
2021/05/17 10:31:21;;;;;;;7.15;6.45;;;;;;;16.27;75.02;98530.56;4387479;32;34460;-86
2021/05/17 10:34:00;;;;;;;6.87;6.30;;;;;;;16.23;75.83;98535.31;4399974;32;34818;-87
2021/05/17 10:36:46;;;;;;;7.32;5.90;;;;;;;16.28;75.64;98526.91;4397780;32;34172;-87
2021/05/17 10:39:15;;;;;;;6.80;6.20;;;;;;;16.45;75.68;98525.44;4376614;32;34510;-87
2021/05/17 10:42:01;;;;;;;6.12;5.53;;;;;;;16.52;75.54;98524.78;4383092;32;34540;-87
2021/05/17 10:46:34;;;;;;;7.65;6.82;;;;;;;16.60;75.58;98516.09;4379332;32;33507;-87
2021/05/17 10:47:29;;;;;;;6.97;6.37;;;;;;;16.48;76.16;98519.88;4384078;32;33488;-87
2021/05/17 10:50:19;;;;;;;7.30;5.70;;;;;;;16.49;76.21;98513.56;4394578;32;34577;-87
2021/05/17 10:52:47;;;;;;;6.12;5.55;;;;;;;16.33;76.58;98509.59;4398853;32;34943;-86
2021/05/17 10:55:16;;;;;;;5.97;5.10;;;;;;;16.40;76.95;98512.53;4387567;32;33339;-87
2021/05/17 11:00:32;;;;;;;7.47;5.37;;;;;;;16.67;76.04;98513.75;4387189;32;34705;-87
2021/05/17 11:03:12;;;;;;;5.45;4.97;;;;;;;16.94;75.34;98510.44;4388092;32;32612;-87
2021/05/17 11:05:43;;;;;;;6.93;5.62;;;;;;;16.48;76.91;98499.41;4389763;32;32358;-87
2021/05/17 11:08:20;;;;;;;6.07;5.47;;;;;;;16.58;76.87;98504.75;4398857;32;33338;-87
2021/05/17 11:10:53;;;;;;;5.37;4.87;;;;;;;17.14;74.74;98499.66;4391223;32;34285;-87
2021/05/17 11:13:23;;;;;;;5.20;4.70;;;;;;;17.16;74.24;98496.84;4375897;32;33082;-86
2021/05/17 11:15:59;;;;;;;5.37;4.97;;;;;;;17.19;74.29;98498.41;4391685;32;33337;-86
2021/05/17 11:18:33;;;;;;;4.37;4.00;;;;;;;17.18;74.24;98494.03;4393386;32;33524;-87
2021/05/17 11:21:06;;;;;;;2.75;1.67;;;;;;;16.62;74.84;98509.66;4384829;32;33401;-86
2021/05/17 11:23:37;;;;;;;1.98;1.30;;;;;;;16.92;70.90;98529.25;4387246;32;34320;-86
2021/05/17 11:28:36;;;;;;;1.85;1.60;;;;;;;17.01;69.18;98533.75;4385976;32;33315;-85
2021/05/17 11:31:15;;;;;;;5.37;2.83;;;;;;;17.04;69.30;98533.50;4386483;32;33836;-85
2021/05/17 11:33:55;;;;;;;5.80;3.17;;;;;;;17.08;68.98;98537.53;4387562;32;34683;-86
2021/05/17 11:36:27;;;;;;;2.42;2.22;;;;;;;16.88;70.37;98546.50;4379240;32;34524;-86
2021/05/17 11:39:20;;;;;;;2.90;2.70;;;;;;;16.78;70.61;98543.81;4381699;32;34250;-86
2021/05/17 11:41:57;;;;;;;2.50;1.95;;;;;;;16.99;69.48;98543.69;4387893;32;35070;-86
2021/05/17 11:44:54;;;;;;;4.07;2.05;;;;;;;16.76;70.54;98542.25;4384232;32;34700;-86
2021/05/17 11:47:27;;;;;;;3.67;2.20;;;;;;;16.61;71.81;98544.44;4385761;32;35138;-87
2021/05/17 11:49:57;;;;;;;5.10;2.17;;;;;;;16.82;70.09;98547.91;4388221;32;33275;-87
2021/05/17 11:52:30;;;;;;;2.75;2.28;;;;;;;16.70;70.58;98550.78;4389158;32;33567;-87
2021/05/17 11:55:03;;;;;;;2.62;2.12;;;;;;;16.43;71.38;98557.56;4388891;32;35364;-87
2021/05/17 11:57:42;;;;;;;2.25;1.87;;;;;;;16.58;70.02;98555.38;4384113;32;34014;-87
2021/05/17 12:00:17;;;;;;;3.95;2.30;;;;;;;16.62;70.39;98559.47;4387917;32;34144;-87
2021/05/17 12:02:46;;;;;;;3.50;2.30;;;;;;;16.67;70.31;98556.41;4395765;32;33154;-87
2021/05/17 12:05:15;;;;;;;3.90;1.65;;;;;;;16.18;71.07;98561.50;4381757;32;34203;-87
2021/05/17 12:07:44;;;;;;;1.80;1.67;;;;;;;16.37;69.79;98560.75;4394367;32;32860;-87
2021/05/17 12:10:14;;;;;;;2.85;1.67;;;;;;;16.36;69.97;98567.06;4396466;32;33024;-87
2021/05/17 12:12:42;;;;;;;4.15;1.73;;;;;;;16.36;69.49;98570.56;4400196;32;34317;-88
2021/05/17 12:15:15;;;;;;;3.65;1.73;;;;;;;16.25;69.81;98567.16;4401780;32;34359;-88